createdAt,value
2022-10-28T00:00:33.489Z,84.47
2022-10-28T00:01:33.499Z,84.38
2022-10-28T00:02:33.530Z,84.47
2022-10-28T00:03:33.456Z,84.56
2022-10-28T00:04:33.449Z,84.47
2022-10-28T00:05:33.437Z,84.47
2022-10-28T00:06:33.429Z,84.38
2022-10-28T00:07:33.416Z,84.38
2022-10-28T00:08:33.408Z,84.47
2022-10-28T00:09:33.397Z,84.47
2022-10-28T00:10:33.388Z,84.56
2022-10-28T00:11:33.379Z,84.56
2022-10-28T00:12:33.369Z,84.38
2022-10-28T00:13:33.361Z,84.18
2022-10-28T00:14:33.346Z,84.38
2022-10-28T00:15:33.336Z,84.38
2022-10-28T00:16:33.329Z,84.38
2022-10-28T00:17:33.317Z,84.38
2022-10-28T00:18:33.308Z,84.18
2022-10-28T00:19:33.296Z,84.66
2022-10-28T00:20:33.292Z,84.18
2022-10-28T00:21:33.279Z,84.28
2022-10-28T00:22:33.270Z,84.09
2022-10-28T00:23:33.264Z,84.18
2022-10-28T00:24:33.251Z,84.09
2022-10-28T00:25:33.245Z,84.18
2022-10-28T00:26:33.227Z,84.18
2022-10-28T00:27:33.227Z,84.23
2022-10-28T00:28:33.214Z,84.28
2022-10-28T00:29:33.199Z,84.38
2022-10-28T00:30:33.207Z,84.14
2022-10-28T00:31:33.185Z,84.23
2022-10-28T00:32:33.172Z,84.05
2022-10-28T00:33:33.163Z,84.38
2022-10-28T00:34:33.158Z,84.47
2022-10-28T00:35:33.138Z,84.33
2022-10-28T00:36:33.138Z,84.23
2022-10-28T00:37:33.121Z,84.47
2022-10-28T00:38:33.117Z,84.18
2022-10-28T00:39:33.100Z,84.33
2022-10-28T00:40:33.105Z,84.28
2022-10-28T00:41:33.078Z,84.38
2022-10-28T00:42:33.068Z,84.09
2022-10-28T00:43:33.064Z,84.28
2022-10-28T00:44:33.048Z,84.28
2022-10-28T00:45:33.039Z,84.28
2022-10-28T00:46:33.032Z,84.28
2022-10-28T00:47:33.019Z,84.28
2022-10-28T00:48:33.053Z,84.18
2022-10-28T00:49:32.997Z,84.38
2022-10-28T00:50:32.988Z,84.28
2022-10-28T00:51:32.978Z,84.28
2022-10-28T00:52:32.969Z,84.28
2022-10-28T00:53:32.957Z,84.28
2022-10-28T00:54:32.947Z,84.18
2022-10-28T00:55:32.943Z,84.18
2022-10-28T00:56:32.938Z,84.28
2022-10-28T00:57:32.916Z,84.09
2022-10-28T00:58:32.908Z,84.18
2022-10-28T00:59:32.902Z,84.09
2022-10-28T01:00:32.897Z,84.09
2022-10-28T01:01:32.979Z,84.09
2022-10-28T01:02:32.920Z,84.38
2022-10-28T01:03:33.582Z,84.28
2022-10-28T01:04:32.900Z,84.18
2022-10-28T01:05:32.840Z,84.18
2022-10-28T01:06:32.830Z,84.38
2022-10-28T01:07:32.819Z,84.28
2022-10-28T01:08:32.810Z,84.28
2022-10-28T01:09:32.804Z,84.18
2022-10-28T01:10:32.794Z,84.18
2022-10-28T01:11:32.781Z,84.18
2022-10-28T01:12:32.774Z,84.18
2022-10-28T01:13:32.756Z,84.09
2022-10-28T01:14:32.749Z,84.23
2022-10-28T01:15:32.736Z,84.18
2022-10-28T01:16:32.730Z,84.23
2022-10-28T01:17:32.718Z,84.18
2022-10-28T01:18:32.710Z,84.14
2022-10-28T01:19:32.698Z,84.18
2022-10-28T01:20:36.154Z,84.23
2022-10-28T01:21:32.677Z,84.38
2022-10-28T01:22:32.681Z,84.18
2022-10-28T01:23:32.659Z,84.62
2022-10-28T01:24:32.649Z,84.56
2022-10-28T01:25:32.638Z,84.05
2022-10-28T01:26:32.631Z,84.62
2022-10-28T01:27:32.619Z,84.14
2022-10-28T01:28:32.613Z,84.23
2022-10-28T01:29:32.601Z,84.62
2022-10-28T01:30:32.605Z,84.18
2022-10-28T01:31:32.577Z,84.62
2022-10-28T01:32:32.570Z,84.53
2022-10-28T01:33:32.565Z,84.23
2022-10-28T01:34:32.553Z,84.23
2022-10-28T01:35:32.599Z,84.14
2022-10-28T01:36:32.635Z,84.14
2022-10-28T01:37:32.519Z,84.14
2022-10-28T01:38:32.508Z,84.23
2022-10-28T01:39:32.499Z,84.23
2022-10-28T01:40:32.491Z,84.23
2022-10-28T01:41:32.478Z,84.14
2022-10-28T01:42:32.468Z,84.05
2022-10-28T01:43:32.457Z,84.23
2022-10-28T01:44:32.448Z,84.14
2022-10-28T01:45:32.438Z,84.14
2022-10-28T01:46:32.427Z,84.28
2022-10-28T01:47:32.418Z,84.14
2022-10-28T01:48:32.445Z,84.05
2022-10-28T01:49:32.403Z,84.14
2022-10-28T01:50:32.387Z,84.23
2022-10-28T01:51:32.380Z,84.05
2022-10-28T01:52:32.373Z,84.14
2022-10-28T01:53:32.357Z,84.14
2022-10-28T01:54:32.349Z,84.23
2022-10-28T01:55:32.338Z,84.14
2022-10-28T01:56:32.328Z,84.14
2022-10-28T01:57:32.317Z,84.23
2022-10-28T01:58:32.308Z,84.05
2022-10-28T01:59:32.295Z,84.23
2022-10-28T02:00:32.377Z,84.23
2022-10-28T02:01:32.446Z,84.23
2022-10-28T02:02:32.269Z,84.14
2022-10-28T02:03:32.265Z,84.23
2022-10-28T02:04:32.248Z,84.23
2022-10-28T02:05:32.233Z,83.75
2022-10-28T02:06:32.239Z,84.05
2022-10-28T02:07:32.217Z,83.75
2022-10-28T02:08:32.211Z,84.14
2022-10-28T02:09:32.195Z,83.95
2022-10-28T02:10:32.186Z,84.18
2022-10-28T02:11:32.180Z,83.99
2022-10-28T02:12:32.167Z,83.99
2022-10-28T02:13:32.158Z,83.95
2022-10-28T02:14:32.146Z,84.18
2022-10-28T02:15:32.142Z,84.38
2022-10-28T02:16:32.126Z,84.38
2022-10-28T02:17:32.118Z,84.28
2022-10-28T02:18:32.107Z,83.99
2022-10-28T02:19:32.097Z,83.80
2022-10-28T02:20:32.087Z,84.09
2022-10-28T02:21:32.074Z,83.99
2022-10-28T02:22:32.064Z,83.70
2022-10-28T02:23:32.055Z,83.89
2022-10-28T02:24:32.051Z,83.89
2022-10-28T02:25:32.037Z,83.80
2022-10-28T02:26:32.026Z,84.47
2022-10-28T02:27:32.030Z,84.38
2022-10-28T02:28:32.011Z,84.28
2022-10-28T02:29:31.993Z,84.28
2022-10-28T02:30:31.987Z,84.23
2022-10-28T02:31:31.974Z,84.28
2022-10-28T02:32:31.967Z,84.38
2022-10-28T02:33:31.953Z,84.18
2022-10-28T02:34:31.950Z,84.28
2022-10-28T02:35:31.932Z,84.38
2022-10-28T02:36:31.927Z,84.33
2022-10-28T02:37:31.913Z,84.47
2022-10-28T02:38:31.909Z,84.38
2022-10-28T02:39:31.893Z,84.43
2022-10-28T02:40:31.886Z,84.56
2022-10-28T02:41:31.880Z,84.14
2022-10-28T02:42:31.865Z,84.14
2022-10-28T02:43:31.854Z,84.38
2022-10-28T02:44:31.846Z,84.43
2022-10-28T02:45:31.838Z,84.43
2022-10-28T02:46:31.824Z,84.18
2022-10-28T02:47:31.815Z,84.38
2022-10-28T02:48:31.808Z,84.28
2022-10-28T02:49:31.794Z,84.18
2022-10-28T02:50:31.786Z,84.18
2022-10-28T02:51:31.776Z,84.14
2022-10-28T02:52:31.764Z,84.18
2022-10-28T02:53:31.763Z,84.18
2022-10-28T02:54:31.744Z,84.47
2022-10-28T02:55:31.734Z,84.18
2022-10-28T02:56:31.735Z,84.66
2022-10-28T02:57:31.712Z,84.28
2022-10-28T02:58:31.704Z,84.66
2022-10-28T02:59:31.696Z,84.38
2022-10-28T03:00:31.690Z,84.28
2022-10-28T03:01:31.739Z,84.66
2022-10-28T03:02:31.663Z,84.18
2022-10-28T03:03:31.654Z,84.18
2022-10-28T03:04:31.645Z,84.38
2022-10-28T03:05:31.632Z,84.18
2022-10-28T03:06:31.625Z,84.38
2022-10-28T03:07:31.613Z,84.18
2022-10-28T03:08:31.607Z,84.28
2022-10-28T03:09:31.599Z,84.18
2022-10-28T03:10:31.584Z,84.38
2022-10-28T03:11:31.573Z,84.28
2022-10-28T03:12:31.565Z,84.28
2022-10-28T03:13:31.557Z,84.09
2022-10-28T03:14:31.557Z,83.89
2022-10-28T03:15:31.537Z,83.99
2022-10-28T03:16:31.526Z,83.89
2022-10-28T03:17:31.516Z,84.09
2022-10-28T03:18:31.511Z,83.89
2022-10-28T03:19:31.495Z,84.09
2022-10-28T03:20:31.483Z,83.99
2022-10-28T03:21:31.477Z,83.89
2022-10-28T03:22:31.463Z,83.80
2022-10-28T03:23:31.453Z,83.89
2022-10-28T03:24:31.444Z,83.89
2022-10-28T03:25:31.432Z,83.89
2022-10-28T03:26:31.424Z,83.70
2022-10-28T03:27:31.412Z,83.80
2022-10-28T03:28:31.405Z,84.18
2022-10-28T03:29:31.393Z,84.09
2022-10-28T03:30:31.383Z,84.12
2022-10-28T03:31:31.395Z,83.99
2022-10-28T03:32:31.370Z,84.28
2022-10-28T03:33:31.352Z,83.89
2022-10-28T03:34:31.347Z,84.28
2022-10-28T03:35:31.332Z,83.99
2022-10-28T03:36:31.330Z,84.28
2022-10-28T03:37:31.314Z,84.18
2022-10-28T03:38:31.307Z,84.18
2022-10-28T03:39:31.292Z,84.18
2022-10-28T03:40:31.285Z,84.28
2022-10-28T03:41:31.283Z,83.89
2022-10-28T03:42:31.265Z,84.38
2022-10-28T03:43:31.258Z,83.99
2022-10-28T03:44:31.312Z,84.09
2022-10-28T03:45:31.241Z,83.99
2022-10-28T03:46:35.087Z,83.99
2022-10-28T03:47:31.214Z,83.99
2022-10-28T03:48:31.206Z,83.99
2022-10-28T03:49:31.193Z,83.99
2022-10-28T03:50:31.185Z,83.99
2022-10-28T03:51:31.175Z,83.99
2022-10-28T03:52:31.165Z,84.28
2022-10-28T03:53:31.633Z,84.18
2022-10-28T03:54:31.144Z,84.09
2022-10-28T03:55:31.136Z,84.28
2022-10-28T03:56:31.128Z,83.99
2022-10-28T03:57:31.114Z,83.84
2022-10-28T03:58:31.180Z,83.80
2022-10-28T03:59:31.094Z,83.51
2022-10-28T04:00:31.090Z,83.12
2022-10-28T04:01:31.245Z,83.12
2022-10-28T04:02:31.165Z,83.47
2022-10-28T04:03:31.056Z,83.28
2022-10-28T04:04:31.048Z,83.37
2022-10-28T04:05:31.033Z,83.62
2022-10-28T04:06:31.027Z,83.62
2022-10-28T04:07:31.019Z,83.62
2022-10-28T04:08:31.013Z,83.42
2022-10-28T04:09:30.992Z,83.42
2022-10-28T04:10:30.985Z,82.85
2022-10-28T04:11:30.975Z,83.14
2022-10-28T04:12:30.967Z,83.08
2022-10-28T04:13:30.951Z,83.42
2022-10-28T04:14:30.944Z,83.37
2022-10-28T04:15:30.932Z,83.75
2022-10-28T04:16:30.968Z,83.56
2022-10-28T04:17:30.911Z,83.56
2022-10-28T04:18:30.903Z,83.28
2022-10-28T04:19:30.895Z,83.37
2022-10-28T04:20:30.881Z,83.56
2022-10-28T04:21:30.872Z,83.66
2022-10-28T04:22:30.861Z,83.56
2022-10-28T04:23:30.852Z,83.37
2022-10-28T04:24:30.841Z,83.37
2022-10-28T04:25:30.831Z,83.47
2022-10-28T04:26:30.820Z,83.47
2022-10-28T04:27:30.812Z,83.28
2022-10-28T04:28:30.802Z,83.28
2022-10-28T04:29:30.790Z,83.37
2022-10-28T04:30:30.778Z,83.28
2022-10-28T04:31:30.770Z,83.28
2022-10-28T04:32:30.762Z,83.51
2022-10-28T04:33:30.754Z,83.66
2022-10-28T04:34:30.741Z,83.08
2022-10-28T04:35:30.728Z,83.22
2022-10-28T04:36:30.718Z,83.51
2022-10-28T04:37:30.710Z,83.12
2022-10-28T04:38:30.702Z,83.51
2022-10-28T04:39:30.690Z,83.12
2022-10-28T04:40:30.682Z,83.51
2022-10-28T04:41:30.671Z,83.51
2022-10-28T04:42:30.661Z,83.61
2022-10-28T04:43:30.650Z,83.22
2022-10-28T04:44:30.636Z,83.51
2022-10-28T04:45:30.627Z,83.51
2022-10-28T04:46:30.616Z,83.41
2022-10-28T04:47:30.607Z,83.41
2022-10-28T04:48:30.599Z,83.61
2022-10-28T04:49:32.367Z,83.41
2022-10-28T04:50:30.579Z,83.51
2022-10-28T04:51:30.573Z,83.61
2022-10-28T04:52:30.556Z,83.61
2022-10-28T04:53:30.547Z,83.61
2022-10-28T04:54:30.536Z,83.51
2022-10-28T04:55:30.525Z,83.61
2022-10-28T04:56:30.516Z,83.70
2022-10-28T04:57:30.515Z,83.41
2022-10-28T04:58:30.497Z,83.41
2022-10-28T04:59:30.488Z,83.61
2022-10-28T05:00:30.476Z,83.41
2022-10-28T05:01:30.542Z,84.09
2022-10-28T05:02:30.495Z,84.09
2022-10-28T05:03:30.446Z,83.22
2022-10-28T05:04:30.443Z,84.09
2022-10-28T05:05:30.432Z,83.51
2022-10-28T05:06:30.426Z,83.51
2022-10-28T05:07:30.406Z,83.22
2022-10-28T05:08:30.401Z,83.12
2022-10-28T05:09:30.385Z,83.51
2022-10-28T05:10:30.375Z,84.09
2022-10-28T05:11:30.367Z,83.80
2022-10-28T05:12:30.354Z,83.89
2022-10-28T05:13:30.344Z,83.80
2022-10-28T05:14:30.334Z,83.80
2022-10-28T05:15:30.358Z,84.28
2022-10-28T05:16:30.316Z,84.47
2022-10-28T05:17:30.305Z,84.38
2022-10-28T05:18:30.295Z,84.28
2022-10-28T05:19:30.285Z,83.99
2022-10-28T05:20:30.277Z,84.09
2022-10-28T05:21:30.263Z,84.18
2022-10-28T05:22:30.256Z,83.99
2022-10-28T05:23:31.041Z,84.09
2022-10-28T05:24:30.235Z,84.18
2022-10-28T05:25:30.264Z,84.18
2022-10-28T05:26:30.218Z,83.70
2022-10-28T05:27:30.208Z,83.99
2022-10-28T05:28:30.197Z,83.99
2022-10-28T05:29:33.348Z,84.18
2022-10-28T05:30:30.176Z,84.28
2022-10-28T05:31:30.167Z,83.89
2022-10-28T05:32:30.154Z,84.38
2022-10-28T05:33:30.146Z,84.28
2022-10-28T05:34:30.135Z,84.18
2022-10-28T05:35:30.127Z,84.18
2022-10-28T05:36:30.116Z,84.18
2022-10-28T05:37:30.106Z,84.09
2022-10-28T05:38:30.097Z,84.38
2022-10-28T05:39:30.083Z,84.66
2022-10-28T05:40:30.078Z,84.38
2022-10-28T05:41:30.066Z,84.38
2022-10-28T05:42:30.053Z,84.28
2022-10-28T05:43:30.044Z,84.47
2022-10-28T05:44:30.032Z,84.47
2022-10-28T05:46:30.015Z,84.28
2022-10-28T05:47:30.006Z,84.18
2022-10-28T05:48:29.993Z,84.28
2022-10-28T05:49:29.982Z,84.38
2022-10-28T05:50:37.653Z,84.38
2022-10-28T05:52:34.489Z,84.28
2022-10-28T05:53:34.411Z,84.28
2022-10-28T05:55:38.542Z,83.89
2022-10-28T05:56:38.524Z,83.80
2022-10-28T05:58:42.704Z,83.89
2022-10-28T05:59:42.652Z,84.18
2022-10-28T06:01:35.774Z,84.18
2022-10-28T06:02:35.698Z,84.18
2022-10-28T06:04:39.855Z,84.47
2022-10-28T06:05:39.828Z,84.47
2022-10-28T06:07:44.013Z,84.18
2022-10-28T06:08:43.957Z,83.80
2022-10-28T06:10:53.363Z,83.51
2022-10-28T06:11:46.523Z,83.41
2022-10-28T06:13:50.662Z,84.09
2022-10-28T06:14:50.637Z,83.12
2022-10-28T06:16:54.788Z,83.89
2022-10-28T06:17:54.759Z,84.09
2022-10-28T06:20:10.395Z,84.09
2022-10-28T06:21:10.377Z,83.99
2022-10-28T06:23:14.363Z,83.99
2022-10-28T06:24:14.332Z,83.51
2022-10-28T06:26:18.305Z,83.61
2022-10-28T06:27:18.289Z,83.61
2022-10-28T06:29:22.278Z,84.09
2022-10-28T06:30:22.245Z,83.22
2022-10-28T06:32:26.232Z,83.22
2022-10-28T06:33:26.203Z,83.12
2022-10-28T06:35:30.169Z,83.41
2022-10-28T06:36:30.152Z,83.41
2022-10-28T06:38:34.149Z,83.41
2022-10-28T06:39:34.098Z,83.41
2022-10-28T06:41:27.033Z,83.22
2022-10-28T06:42:26.985Z,83.61
2022-10-28T06:44:30.957Z,84.09
2022-10-28T06:45:30.936Z,83.16
2022-10-28T06:47:40.574Z,83.51
2022-10-28T06:48:36.405Z,83.61
2022-10-28T06:50:40.377Z,83.80
2022-10-28T06:51:40.362Z,84.09
2022-10-28T06:53:44.342Z,84.28
2022-10-28T06:54:44.314Z,84.47
2022-10-28T06:56:48.539Z,84.47
2022-10-28T06:57:48.491Z,84.28
2022-10-28T06:59:52.466Z,83.89
2022-10-28T07:00:52.459Z,84.28
2022-10-28T07:02:56.810Z,84.28
2022-10-28T07:03:56.404Z,83.89
2022-10-28T07:06:00.405Z,83.80
2022-10-28T07:07:00.368Z,83.99
2022-10-28T07:09:04.379Z,84.28
2022-10-28T07:10:04.310Z,84.28
2022-10-28T07:12:08.377Z,84.28
2022-10-28T07:13:08.277Z,84.09
2022-10-28T07:15:12.253Z,83.89
2022-10-28T07:16:12.233Z,83.99
2022-10-28T07:18:16.223Z,84.09
2022-10-28T07:19:19.019Z,84.18
2022-10-28T07:21:09.101Z,84.18
2022-10-28T07:22:09.081Z,83.99
2022-10-28T07:24:13.070Z,84.09
2022-10-28T07:25:13.038Z,84.18
2022-10-28T07:27:17.031Z,84.18
2022-10-28T07:28:16.993Z,84.09
2022-10-28T07:29:16.981Z,84.09
2022-10-28T07:30:16.973Z,83.99
2022-10-28T07:31:16.960Z,84.18
2022-10-28T07:32:16.956Z,83.89
2022-10-28T07:33:16.942Z,84.28
2022-10-28T07:34:16.933Z,84.28
2022-10-28T07:35:16.924Z,84.09
2022-10-28T07:36:16.913Z,84.18
2022-10-28T07:37:16.903Z,83.99
2022-10-28T07:38:16.900Z,84.18
2022-10-28T07:39:16.887Z,84.09
2022-10-28T07:40:16.877Z,84.18
2022-10-28T07:41:16.865Z,84.18
2022-10-28T07:42:16.855Z,83.89
2022-10-28T07:43:16.845Z,83.89
2022-10-28T07:44:16.846Z,83.89
2022-10-28T07:45:16.829Z,83.80
2022-10-28T07:46:16.819Z,84.18
2022-10-28T07:47:16.807Z,84.38
2022-10-28T07:48:16.797Z,84.28
2022-10-28T07:49:16.783Z,84.28
2022-10-28T07:50:16.775Z,84.28
2022-10-28T07:51:16.767Z,84.09
2022-10-28T07:52:16.759Z,84.18
2022-10-28T07:53:16.743Z,84.18
2022-10-28T07:54:16.735Z,84.18
2022-10-28T07:55:16.723Z,84.09
2022-10-28T07:56:16.738Z,84.09
2022-10-28T07:57:16.698Z,83.89
2022-10-28T07:58:16.689Z,83.99
2022-10-28T07:59:16.678Z,83.70
2022-10-28T08:00:16.667Z,83.80
2022-10-28T08:01:16.881Z,83.70
2022-10-28T08:02:16.642Z,83.70
2022-10-28T08:03:16.633Z,83.89
2022-10-28T08:04:16.623Z,83.80
2022-10-28T08:05:16.609Z,84.18
2022-10-28T08:06:16.600Z,83.70
2022-10-28T08:07:16.588Z,83.89
2022-10-28T08:08:16.573Z,84.09
2022-10-28T08:09:16.560Z,83.80
2022-10-28T08:10:16.841Z,84.28
2022-10-28T08:11:16.540Z,84.28
2022-10-28T08:12:16.526Z,84.18
2022-10-28T08:13:16.516Z,84.28
2022-10-28T08:14:16.503Z,84.38
2022-10-28T08:15:16.487Z,84.28
2022-10-28T08:16:16.477Z,84.47
2022-10-28T08:17:16.470Z,84.38
2022-10-28T08:18:16.454Z,84.38
2022-10-28T08:19:16.443Z,84.28
2022-10-28T08:20:16.433Z,84.28
2022-10-28T08:21:16.429Z,84.28
2022-10-28T08:22:16.411Z,84.09
2022-10-28T08:23:16.398Z,84.38
2022-10-28T08:24:16.391Z,84.18
2022-10-28T08:25:16.378Z,84.28
2022-10-28T08:26:16.372Z,84.18
2022-10-28T08:27:16.359Z,83.99
2022-10-28T08:28:16.347Z,83.89
2022-10-28T08:29:16.336Z,83.89
2022-10-28T08:30:16.332Z,83.89
2022-10-28T08:31:16.320Z,84.18
2022-10-28T08:32:16.309Z,83.99
2022-10-28T08:33:16.296Z,84.18
2022-10-28T08:34:16.355Z,83.70
2022-10-28T08:35:16.276Z,84.18
2022-10-28T08:36:16.272Z,83.89
2022-10-28T08:37:16.395Z,83.80
2022-10-28T08:38:16.248Z,83.80
2022-10-28T08:39:16.240Z,83.89
2022-10-28T08:40:16.229Z,83.80
2022-10-28T08:41:16.229Z,83.70
2022-10-28T08:42:16.207Z,83.89
2022-10-28T08:43:16.202Z,83.89
2022-10-28T08:44:16.189Z,83.89
2022-10-28T08:45:16.244Z,83.89
2022-10-28T08:46:16.190Z,83.99
2022-10-28T08:47:16.162Z,84.09
2022-10-28T08:48:16.156Z,83.89
2022-10-28T08:49:16.144Z,84.28
2022-10-28T08:50:16.130Z,84.28
2022-10-28T08:51:16.121Z,84.09
2022-10-28T08:52:16.113Z,84.38
2022-10-28T08:53:16.098Z,84.38
2022-10-28T08:54:16.093Z,84.09
2022-10-28T08:55:16.081Z,84.18
2022-10-28T08:56:16.073Z,84.18
2022-10-28T08:57:18.064Z,84.18
2022-10-28T08:58:16.050Z,83.99
2022-10-28T08:59:16.044Z,84.09
2022-10-28T09:00:16.031Z,84.28
2022-10-28T09:01:16.068Z,84.28
2022-10-28T09:02:16.013Z,84.28
2022-10-28T09:03:16.000Z,84.18
2022-10-28T09:04:15.993Z,83.80
2022-10-28T09:05:15.983Z,83.80
2022-10-28T09:06:15.971Z,84.09
2022-10-28T09:07:15.961Z,83.99
2022-10-28T09:08:15.954Z,84.09
2022-10-28T09:09:15.939Z,83.80
2022-10-28T09:10:15.930Z,83.80
2022-10-28T09:11:15.922Z,83.89
2022-10-28T09:12:15.913Z,83.89
2022-10-28T09:13:15.902Z,83.89
2022-10-28T09:14:15.892Z,83.89
2022-10-28T09:15:15.887Z,84.09
2022-10-28T09:16:16.291Z,84.09
2022-10-28T09:17:15.861Z,84.09
2022-10-28T09:18:15.853Z,84.18
2022-10-28T09:19:15.843Z,83.99
2022-10-28T09:20:15.833Z,84.09
2022-10-28T09:21:15.823Z,83.89
2022-10-28T09:22:19.927Z,83.99
2022-10-28T09:23:15.808Z,83.80
2022-10-28T09:24:15.793Z,83.80
2022-10-28T09:25:15.782Z,83.80
2022-10-28T09:26:15.771Z,83.99
2022-10-28T09:27:15.764Z,83.89
2022-10-28T09:28:15.756Z,83.80
2022-10-28T09:29:15.741Z,83.70
2022-10-28T09:30:15.730Z,83.80
2022-10-28T09:31:15.723Z,84.18
2022-10-28T09:32:15.712Z,84.18
2022-10-28T09:33:15.703Z,83.99
2022-10-28T09:34:15.690Z,83.99
2022-10-28T09:35:15.684Z,83.89
2022-10-28T09:36:15.672Z,83.99
2022-10-28T09:37:15.662Z,83.99
2022-10-28T09:38:15.652Z,84.28
2022-10-28T09:39:15.646Z,84.03
2022-10-28T09:40:15.636Z,84.38
2022-10-28T09:41:15.626Z,84.18
2022-10-28T09:42:15.613Z,84.28
2022-10-28T09:43:15.605Z,84.18
2022-10-28T09:44:15.593Z,84.28
2022-10-28T09:45:15.588Z,84.18
2022-10-28T09:46:15.572Z,84.38
2022-10-28T09:47:15.565Z,83.89
2022-10-28T09:48:15.554Z,84.32
2022-10-28T09:49:15.545Z,83.99
2022-10-28T09:50:15.533Z,83.80
2022-10-28T09:51:15.525Z,83.99
2022-10-28T09:52:16.292Z,83.80
2022-10-28T09:53:15.507Z,83.89
2022-10-28T09:54:15.493Z,83.89
2022-10-28T09:55:15.485Z,83.80
2022-10-28T09:56:15.473Z,83.99
2022-10-28T09:57:17.377Z,83.99
2022-10-28T09:58:15.456Z,83.99
2022-10-28T09:59:15.445Z,83.99
2022-10-28T10:00:15.437Z,83.94
2022-10-28T10:01:15.447Z,83.89
2022-10-28T10:02:15.461Z,84.38
2022-10-28T10:03:15.480Z,83.94
2022-10-28T10:04:15.422Z,83.99
2022-10-28T10:05:17.146Z,84.32
2022-10-28T10:06:15.372Z,84.03
2022-10-28T10:07:15.364Z,84.38
2022-10-28T10:08:15.355Z,84.28
2022-10-28T10:09:15.343Z,83.99
2022-10-28T10:10:15.337Z,83.89
2022-10-28T10:11:15.325Z,84.03
2022-10-28T10:12:15.315Z,84.18
2022-10-28T10:13:15.304Z,84.18
2022-10-28T10:14:15.294Z,83.99
2022-10-28T10:15:15.288Z,83.89
2022-10-28T10:16:15.279Z,84.28
2022-10-28T10:17:15.265Z,83.89
2022-10-28T10:18:15.256Z,83.99
2022-10-28T10:19:15.252Z,83.89
2022-10-28T10:20:15.232Z,83.99
2022-10-28T10:21:15.233Z,83.80
2022-10-28T10:22:15.212Z,83.99
2022-10-28T10:23:15.203Z,84.03
2022-10-28T10:24:15.195Z,83.80
2022-10-28T10:25:15.199Z,83.89
2022-10-28T10:26:15.173Z,83.99
2022-10-28T10:27:15.171Z,84.38
2022-10-28T10:28:15.162Z,84.18
2022-10-28T10:29:15.145Z,83.89
2022-10-28T10:30:15.134Z,83.89
2022-10-28T10:31:15.124Z,83.80
2022-10-28T10:32:15.117Z,83.89
2022-10-28T10:33:15.107Z,84.18
2022-10-28T10:34:15.095Z,84.18
2022-10-28T10:35:15.087Z,84.38
2022-10-28T10:36:15.072Z,83.89
2022-10-28T10:37:15.064Z,84.38
2022-10-28T10:38:15.054Z,84.18
2022-10-28T10:39:15.045Z,84.18
2022-10-28T10:40:15.035Z,84.28
2022-10-28T10:41:15.032Z,84.18
2022-10-28T10:42:15.013Z,84.18
2022-10-28T10:43:15.006Z,84.09
2022-10-28T10:44:14.997Z,84.18
2022-10-28T10:45:14.987Z,84.18
2022-10-28T10:46:14.979Z,84.18
2022-10-28T10:47:14.969Z,84.52
2022-10-28T10:48:14.955Z,84.28
2022-10-28T10:49:14.945Z,84.28
2022-10-28T10:50:14.934Z,83.84
2022-10-28T10:51:14.933Z,83.99
2022-10-28T10:52:14.920Z,83.84
2022-10-28T10:53:14.906Z,83.84
2022-10-28T10:54:14.893Z,83.64
2022-10-28T10:55:14.892Z,83.84
2022-10-28T10:56:14.877Z,83.84
2022-10-28T10:57:14.866Z,83.84
2022-10-28T10:58:14.856Z,84.12
2022-10-28T10:59:14.846Z,83.55
2022-10-28T11:00:14.905Z,83.16
2022-10-28T11:01:14.937Z,83.26
2022-10-28T11:02:14.992Z,83.16
2022-10-28T11:03:14.805Z,83.26
2022-10-28T11:04:14.795Z,83.45
2022-10-28T11:05:14.790Z,83.45
2022-10-28T11:06:30.013Z,83.64
2022-10-28T11:07:14.767Z,83.55
2022-10-28T11:08:14.754Z,83.45
2022-10-28T11:10:14.771Z,83.45
2022-10-28T11:11:14.741Z,83.45
2022-10-28T11:12:14.714Z,83.36
2022-10-28T11:13:14.719Z,83.45
2022-10-28T11:14:14.696Z,83.84
2022-10-28T11:15:14.686Z,83.45
2022-10-28T11:16:14.679Z,83.36
2022-10-28T11:17:14.669Z,83.45
2022-10-28T11:18:14.657Z,83.45
2022-10-28T11:19:14.649Z,83.55
2022-10-28T11:20:14.703Z,83.55
2022-10-28T11:21:14.685Z,83.55
2022-10-28T11:22:14.616Z,83.45
2022-10-28T11:23:14.608Z,83.74
2022-10-28T11:24:14.598Z,83.41
2022-10-28T11:25:14.588Z,83.55
2022-10-28T11:26:14.576Z,83.55
2022-10-28T11:27:14.567Z,83.45
2022-10-28T11:28:14.556Z,83.64
2022-10-28T11:29:14.546Z,83.80
2022-10-28T11:30:14.596Z,83.45
2022-10-28T11:31:14.569Z,83.41
2022-10-28T11:32:14.520Z,83.84
2022-10-28T11:33:29.394Z,83.45
2022-10-28T11:34:14.495Z,83.45
2022-10-28T11:35:14.491Z,83.64
2022-10-28T11:36:14.507Z,83.64
2022-10-28T11:37:14.469Z,83.61
2022-10-28T11:38:14.458Z,83.61
2022-10-28T11:39:14.448Z,83.61
2022-10-28T11:40:14.446Z,83.84
2022-10-28T11:41:14.427Z,83.41
2022-10-28T11:42:14.417Z,83.80
2022-10-28T11:43:14.409Z,83.61
2022-10-28T11:44:14.404Z,83.51
2022-10-28T11:45:14.389Z,83.61
2022-10-28T11:46:14.382Z,83.41
2022-10-28T11:47:14.366Z,83.61
2022-10-28T11:48:14.356Z,83.70
2022-10-28T11:49:14.353Z,83.51
2022-10-28T11:50:14.335Z,83.61
2022-10-28T11:51:14.328Z,83.74
2022-10-28T11:52:14.320Z,83.84
2022-10-28T11:53:14.309Z,83.61
2022-10-28T11:54:14.297Z,83.64
2022-10-28T11:55:14.291Z,83.64
2022-10-28T11:56:14.278Z,83.74
2022-10-28T11:57:14.271Z,83.64
2022-10-28T11:59:14.251Z,83.45
2022-10-28T12:00:14.240Z,83.55
2022-10-28T12:01:14.309Z,83.55
2022-10-28T12:02:14.475Z,83.55
2022-10-28T12:03:14.263Z,83.45
2022-10-28T12:04:14.202Z,84.12
2022-10-28T12:05:14.191Z,83.64
2022-10-28T12:06:14.178Z,84.22
2022-10-28T12:07:14.167Z,84.32
2022-10-28T12:08:14.162Z,84.12
2022-10-28T12:09:14.157Z,84.12
2022-10-28T12:10:14.191Z,84.32
2022-10-28T12:11:14.132Z,84.22
2022-10-28T12:12:14.118Z,84.03
2022-10-28T12:13:14.114Z,83.94
2022-10-28T12:14:14.098Z,84.22
2022-10-28T12:15:14.087Z,84.03
2022-10-28T12:16:14.079Z,83.84
2022-10-28T12:17:14.079Z,83.94
2022-10-28T12:18:14.059Z,84.03
2022-10-28T12:19:14.050Z,83.84
2022-10-28T12:20:14.059Z,84.32
2022-10-28T12:21:14.179Z,84.32
2022-10-28T12:22:14.018Z,84.12
2022-10-28T12:23:14.038Z,84.22
2022-10-28T12:24:14.006Z,84.32
2022-10-28T12:25:14.050Z,84.22
2022-10-28T12:26:13.979Z,84.42
2022-10-28T12:27:17.218Z,84.32
2022-10-28T12:28:14.068Z,84.70
2022-10-28T12:29:13.950Z,84.61
2022-10-28T12:30:13.939Z,84.22
2022-10-28T12:31:13.931Z,84.52
2022-10-28T12:32:13.939Z,84.32
2022-10-28T12:33:13.916Z,84.52
2022-10-28T12:34:13.902Z,84.42
2022-10-28T12:35:13.898Z,84.52
2022-10-28T12:36:13.883Z,84.52
2022-10-28T12:37:13.870Z,84.52
2022-10-28T12:38:13.861Z,84.61
2022-10-28T12:39:13.854Z,84.52
2022-10-28T12:40:13.846Z,84.70
2022-10-28T12:41:13.842Z,84.61
2022-10-28T12:42:13.837Z,84.61
2022-10-28T12:43:13.845Z,84.61
2022-10-28T12:44:13.800Z,84.80
2022-10-28T12:45:13.792Z,84.99
2022-10-28T12:46:13.793Z,84.80
2022-10-28T12:47:13.779Z,85.09
2022-10-28T12:48:13.762Z,84.70
2022-10-28T12:49:13.754Z,84.99
2022-10-28T12:50:13.740Z,84.80
2022-10-28T12:51:13.737Z,84.80
2022-10-28T12:52:13.731Z,84.80
2022-10-28T12:53:13.713Z,84.90
2022-10-28T12:54:13.715Z,84.90
2022-10-28T12:56:13.744Z,85.77
2022-10-28T12:57:13.676Z,85.47
2022-10-28T12:58:15.368Z,85.57
2022-10-28T12:59:13.669Z,85.38
2022-10-28T13:00:13.641Z,85.19
2022-10-28T13:01:13.764Z,85.38
2022-10-28T13:02:13.794Z,85.38
2022-10-28T13:03:13.613Z,85.28
2022-10-28T13:04:13.603Z,85.28
2022-10-28T13:05:13.594Z,85.38
2022-10-28T13:06:13.583Z,85.19
2022-10-28T13:07:13.574Z,85.19
2022-10-28T13:08:13.564Z,85.19
2022-10-28T13:09:13.554Z,85.38
2022-10-28T13:10:13.603Z,85.38
2022-10-28T13:11:13.542Z,85.47
2022-10-28T13:12:13.526Z,85.38
2022-10-28T13:13:13.796Z,85.57
2022-10-28T13:14:13.502Z,85.38
2022-10-28T13:15:13.495Z,85.47
2022-10-28T13:16:13.482Z,85.38
2022-10-28T13:17:13.475Z,85.47
2022-10-28T13:18:13.463Z,85.38
2022-10-28T13:19:13.454Z,85.47
2022-10-28T13:20:13.442Z,85.47
2022-10-28T13:21:13.432Z,85.67
2022-10-28T13:22:13.456Z,85.57
2022-10-28T13:23:13.416Z,85.57
2022-10-28T13:24:13.406Z,85.57
2022-10-28T13:25:13.398Z,85.67
2022-10-28T13:26:13.426Z,85.77
2022-10-28T13:27:13.378Z,85.38
2022-10-28T13:28:13.368Z,85.57
2022-10-28T13:29:13.368Z,85.47
2022-10-28T13:30:13.347Z,85.28